sensor_id;sensor_type;location;lat;lon;timestamp;pressure;altitude;pressure_sealevel;temperature;humidity
77517;BME280;68414;53.946;27.634;2023-07-13T00:00:11;98490.750000;;;19.750000;44.001953
77517;BME280;68414;53.946;27.634;2023-07-13T00:01:10;98490.750000;;;19.750000;43.555664
77517;BME280;68414;53.946;27.634;2023-07-13T00:02:10;98487.953125;;;19.750000;43.790039
77517;BME280;68414;53.946;27.634;2023-07-13T00:03:10;98494.703125;;;19.780001;43.904297
77517;BME280;68414;53.946;27.634;2023-07-13T00:04:11;98487.484375;;;19.799999;43.873047
77517;BME280;68414;53.946;27.634;2023-07-13T00:05:12;98489.078125;;;19.809999;43.739258
77517;BME280;68414;53.946;27.634;2023-07-13T00:06:10;98491.984375;;;19.740000;44.201172
77517;BME280;68414;53.946;27.634;2023-07-13T00:07:13;98486.750000;;;19.760000;44.248047
77517;BME280;68414;53.946;27.634;2023-07-13T00:08:10;98487.546875;;;19.770000;44.013672
77517;BME280;68414;53.946;27.634;2023-07-13T00:09:11;98493.875000;;;19.809999;44.173828
77517;BME280;68414;53.946;27.634;2023-07-13T00:10:10;98488.640625;;;19.830000;44.231445
77517;BME280;68414;53.946;27.634;2023-07-13T00:11:10;98485.007812;;;19.860001;44.123047
77517;BME280;68414;53.946;27.634;2023-07-13T00:12:21;98481.703125;;;19.910000;44.328125
77517;BME280;68414;53.946;27.634;2023-07-13T00:13:10;98487.656250;;;19.930000;44.353516
77517;BME280;68414;53.946;27.634;2023-07-13T00:14:11;98490.460938;;;19.930000;44.297852
77517;BME280;68414;53.946;27.634;2023-07-13T00:16:11;98488.890625;;;19.920000;43.739258
77517;BME280;68414;53.946;27.634;2023-07-13T00:17:10;98487.656250;;;19.930000;43.672852
77517;BME280;68414;53.946;27.634;2023-07-13T00:18:10;98481.664062;;;19.940001;43.608398
77517;BME280;68414;53.946;27.634;2023-07-13T00:19:11;98491.187500;;;19.969999;43.298828
77517;BME280;68414;53.946;27.634;2023-07-13T00:20:11;98487.984375;;;19.980000;43.221680
77517;BME280;68414;53.946;27.634;2023-07-13T00:21:11;98485.984375;;;19.990000;43.233398
77517;BME280;68414;53.946;27.634;2023-07-13T00:22:10;98479.953125;;;20.000000;43.468750
77517;BME280;68414;53.946;27.634;2023-07-13T00:23:10;98483.546875;;;20.010000;43.157227
77517;BME280;68414;53.946;27.634;2023-07-13T00:24:11;98476.359375;;;20.000000;42.519531
77517;BME280;68414;53.946;27.634;2023-07-13T00:25:11;98468.328125;;;20.020000;42.633789
77517;BME280;68414;53.946;27.634;2023-07-13T00:26:10;98470.687500;;;20.030001;42.634766
77517;BME280;68414;53.946;27.634;2023-07-13T00:27:10;98472.359375;;;20.010000;42.231445
77517;BME280;68414;53.946;27.634;2023-07-13T00:28:10;98471.250000;;;19.950001;42.403320
77517;BME280;68414;53.946;27.634;2023-07-13T00:29:11;98474.593750;;;19.860001;43.175781
77517;BME280;68414;53.946;27.634;2023-07-13T00:30:11;98463.406250;;;19.860001;43.376953
77517;BME280;68414;53.946;27.634;2023-07-13T00:31:11;98467.867188;;;19.840000;43.184570
77517;BME280;68414;53.946;27.634;2023-07-13T00:32:10;98465.906250;;;19.809999;43.170898
77517;BME280;68414;53.946;27.634;2023-07-13T00:33:10;98459.843750;;;19.860001;43.532227
77517;BME280;68414;53.946;27.634;2023-07-13T00:34:10;98461.046875;;;19.850000;43.352539
77517;BME280;68414;53.946;27.634;2023-07-13T00:35:12;98461.359375;;;19.900000;43.681641
77517;BME280;68414;53.946;27.634;2023-07-13T00:36:10;98461.296875;;;19.940001;44.019531
77517;BME280;68414;53.946;27.634;2023-07-13T00:37:12;98461.656250;;;19.959999;44.033203
77517;BME280;68414;53.946;27.634;2023-07-13T00:38:10;98461.296875;;;19.940001;43.819336
77517;BME280;68414;53.946;27.634;2023-07-13T00:39:10;98458.609375;;;19.870001;43.778320
77517;BME280;68414;53.946;27.634;2023-07-13T00:40:11;98453.890625;;;19.840000;43.441406
77517;BME280;68414;53.946;27.634;2023-07-13T00:41:11;98458.796875;;;19.760000;42.731445
77517;BME280;68414;53.946;27.634;2023-07-13T00:42:10;98456.718750;;;19.799999;43.259766
77517;BME280;68414;53.946;27.634;2023-07-13T00:44:13;98453.929688;;;19.799999;43.037109
77517;BME280;68414;53.946;27.634;2023-07-13T00:46:13;98451.453125;;;19.860001;42.929688
77517;BME280;68414;53.946;27.634;2023-07-13T00:47:10;98445.421875;;;19.870001;42.909180
77517;BME280;68414;53.946;27.634;2023-07-13T00:48:11;98451.382812;;;19.889999;42.476562
77517;BME280;68414;53.946;27.634;2023-07-13T00:49:12;98443.359375;;;19.910000;41.864258
77517;BME280;68414;53.946;27.634;2023-07-13T00:50:11;98445.109375;;;19.820000;43.250000
77517;BME280;68414;53.946;27.634;2023-07-13T00:51:10;98451.015625;;;19.870001;43.522461
77517;BME280;68414;53.946;27.634;2023-07-13T00:52:10;98448.109375;;;19.940001;43.664062
77517;BME280;68414;53.946;27.634;2023-07-13T00:53:10;98447.187500;;;20.010000;43.659180
77517;BME280;68414;53.946;27.634;2023-07-13T00:54:11;98444.796875;;;19.990000;43.846680
77517;BME280;68414;53.946;27.634;2023-07-13T00:55:10;98448.390625;;;20.000000;42.552734
77517;BME280;68414;53.946;27.634;2023-07-13T00:56:10;98440.000000;;;20.000000;43.735352
77517;BME280;68414;53.946;27.634;2023-07-13T00:57:11;98445.593750;;;20.000000;43.467773
77517;BME280;68414;53.946;27.634;2023-07-13T00:58:10;98446.312500;;;20.040001;43.450195
77517;BME280;68414;53.946;27.634;2023-07-13T00:59:10;98449.835938;;;20.080000;43.353516
77517;BME280;68414;53.946;27.634;2023-07-13T01:00:11;98452.273438;;;20.059999;44.333008
77517;BME280;68414;53.946;27.634;2023-07-13T01:01:10;98447.835938;;;20.080000;44.035156
77517;BME280;68414;53.946;27.634;2023-07-13T01:02:10;98442.195312;;;20.120001;43.769531
77517;BME280;68414;53.946;27.634;2023-07-13T01:03:10;98433.367188;;;20.129999;43.224609
77517;BME280;68414;53.946;27.634;2023-07-13T01:04:10;98438.882812;;;20.170000;42.882812
77517;BME280;68414;53.946;27.634;2023-07-13T01:05:11;98442.429688;;;20.209999;42.830078
77517;BME280;68414;53.946;27.634;2023-07-13T01:06:10;98436.429688;;;20.219999;42.486328
77517;BME280;68414;53.946;27.634;2023-07-13T01:07:11;98439.585938;;;20.240000;43.224609
77517;BME280;68414;53.946;27.634;2023-07-13T01:08:10;98436.343750;;;20.260000;43.314453
77517;BME280;68414;53.946;27.634;2023-07-13T01:09:11;98443.898438;;;20.290001;43.106445
77517;BME280;68414;53.946;27.634;2023-07-13T01:10:11;98431.468750;;;20.299999;43.095703
77517;BME280;68414;53.946;27.634;2023-07-13T01:11:10;98445.101562;;;20.280001;42.713867
77517;BME280;68414;53.946;27.634;2023-07-13T01:12:11;98439.687500;;;20.170000;42.692383
77517;BME280;68414;53.946;27.634;2023-07-13T01:13:10;98436.164062;;;20.129999;42.778320
77517;BME280;68414;53.946;27.634;2023-07-13T01:14:10;98434.164062;;;20.139999;41.997070
77517;BME280;68414;53.946;27.634;2023-07-13T01:16:13;98438.242188;;;20.090000;42.885742
77517;BME280;68414;53.946;27.634;2023-07-13T01:17:10;98441.445312;;;20.080000;42.817383
77517;BME280;68414;53.946;27.634;2023-07-13T01:18:11;98434.210938;;;20.100000;42.575195
77517;BME280;68414;53.946;27.634;2023-07-13T01:20:10;98432.570312;;;20.129999;41.773438
77517;BME280;68414;53.946;27.634;2023-07-13T01:21:10;98427.773438;;;20.129999;42.108398
77517;BME280;68414;53.946;27.634;2023-07-13T01:23:11;98428.929688;;;20.160000;42.267578
77517;BME280;68414;53.946;27.634;2023-07-13T01:24:10;98433.367188;;;20.129999;42.476562
77517;BME280;68414;53.946;27.634;2023-07-13T01:25:10;98426.539062;;;20.139999;42.376953
77517;BME280;68414;53.946;27.634;2023-07-13T01:26:10;98429.414062;;;20.110001;42.095703
77517;BME280;68414;53.946;27.634;2023-07-13T01:27:11;98419.812500;;;20.120001;41.872070
77517;BME280;68414;53.946;27.634;2023-07-13T01:28:10;98418.218750;;;20.110001;41.984375
77517;BME280;68414;53.946;27.634;2023-07-13T01:29:10;98411.421875;;;20.120001;42.385742
77517;BME280;68414;53.946;27.634;2023-07-13T01:30:10;98416.218750;;;20.110001;42.196289
77517;BME280;68414;53.946;27.634;2023-07-13T01:31:10;98421.375000;;;20.129999;42.354492
77517;BME280;68414;53.946;27.634;2023-07-13T01:32:12;98417.500000;;;20.070000;42.705078
77517;BME280;68414;53.946;27.634;2023-07-13T01:33:11;98417.859375;;;20.090000;42.773438
77517;BME280;68414;53.946;27.634;2023-07-13T01:34:10;98419.062500;;;20.080000;42.839844
77517;BME280;68414;53.946;27.634;2023-07-13T01:35:10;98415.546875;;;20.040001;42.557617
77517;BME280;68414;53.946;27.634;2023-07-13T01:36:10;98417.703125;;;19.959999;42.238281
77517;BME280;68414;53.946;27.634;2023-07-13T01:37:11;98420.984375;;;19.910000;42.053711
77517;BME280;68414;53.946;27.634;2023-07-13T01:38:10;98416.742188;;;19.830000;41.890625
77517;BME280;68414;53.946;27.634;2023-07-13T01:39:10;98417.898438;;;19.860001;42.472656
77517;BME280;68414;53.946;27.634;2023-07-13T01:40:11;98412.312500;;;19.860001;42.450195
77517;BME280;68414;53.946;27.634;2023-07-13T01:41:10;98412.234375;;;19.889999;42.398438
77517;BME280;68414;53.946;27.634;2023-07-13T01:42:12;98409.796875;;;19.910000;43.135742
77517;BME280;68414;53.946;27.634;2023-07-13T01:43:11;98413.945312;;;19.830000;43.251953
77517;BME280;68414;53.946;27.634;2023-07-13T01:44:10;98414.421875;;;19.780001;42.722656
77517;BME280;68414;53.946;27.634;2023-07-13T01:45:10;98418.500000;;;19.740000;42.941406
77517;BME280;68414;53.946;27.634;2023-07-13T01:46:10;98413.265625;;;19.760000;42.642578
77517;BME280;68414;53.946;27.634;2023-07-13T01:47:10;98421.289062;;;19.740000;42.640625
77517;BME280;68414;53.946;27.634;2023-07-13T01:48:11;98404.992188;;;19.680000;42.914062
77517;BME280;68414;53.946;27.634;2023-07-13T01:49:10;98417.703125;;;19.730000;43.419922
77517;BME280;68414;53.946;27.634;2023-07-13T01:50:10;98412.062500;;;19.770000;43.534180
77517;BME280;68414;53.946;27.634;2023-07-13T01:51:10;98407.562500;;;19.830000;43.696289
77517;BME280;68414;53.946;27.634;2023-07-13T01:52:10;98411.437500;;;19.889999;43.668945
77517;BME280;68414;53.946;27.634;2023-07-13T01:53:10;98404.562500;;;19.930000;43.884766
77517;BME280;68414;53.946;27.634;2023-07-13T01:54:10;98410.156250;;;19.930000;43.662109
77517;BME280;68414;53.946;27.634;2023-07-13T01:55:10;98409.718750;;;19.950001;42.816406
77517;BME280;68414;53.946;27.634;2023-07-13T01:56:12;98406.921875;;;19.950001;42.448242
77517;BME280;68414;53.946;27.634;2023-07-13T01:57:10;98409.000000;;;19.910000;42.420898
77517;BME280;68414;53.946;27.634;2023-07-13T01:58:10;98404.281250;;;19.879999;42.642578
77517;BME280;68414;53.946;27.634;2023-07-13T01:59:10;98411.031250;;;19.900000;42.811523
77517;BME280;68414;53.946;27.634;2023-07-13T02:00:11;98407.078125;;;19.879999;42.809570
77517;BME280;68414;53.946;27.634;2023-07-13T02:01:10;98409.148438;;;19.840000;43.285156
77517;BME280;68414;53.946;27.634;2023-07-13T02:02:10;98407.195312;;;19.809999;43.092773
77517;BME280;68414;53.946;27.634;2023-07-13T02:03:10;98397.093750;;;19.870001;43.599609
77517;BME280;68414;53.946;27.634;2023-07-13T02:04:10;98411.875000;;;19.870001;43.600586
77517;BME280;68414;53.946;27.634;2023-07-13T02:05:10;98409.000000;;;19.910000;43.547852
77517;BME280;68414;53.946;27.634;2023-07-13T02:06:10;98407.796875;;;19.920000;43.627930
77517;BME280;68414;53.946;27.634;2023-07-13T02:07:10;98408.515625;;;19.959999;43.776367
77517;BME280;68414;53.946;27.634;2023-07-13T02:08:10;98407.234375;;;20.000000;43.580078
77517;BME280;68414;53.946;27.634;2023-07-13T02:09:10;98410.750000;;;20.040001;43.483398
77517;BME280;68414;53.946;27.634;2023-07-13T02:10:12;98402.281250;;;20.080000;43.107422
77517;BME280;68414;53.946;27.634;2023-07-13T02:11:10;98396.687500;;;20.080000;43.197266
77517;BME280;68414;53.946;27.634;2023-07-13T02:12:10;98396.765625;;;20.040001;43.583984
77517;BME280;68414;53.946;27.634;2023-07-13T02:13:10;98398.484375;;;19.980000;43.923828
77517;BME280;68414;53.946;27.634;2023-07-13T02:14:10;98399.687500;;;19.969999;43.990234
77517;BME280;68414;53.946;27.634;2023-07-13T02:15:10;98400.203125;;;19.920000;44.454102
77517;BME280;68414;53.946;27.634;2023-07-13T02:16:10;98395.375000;;;19.930000;44.476562
77517;BME280;68414;53.946;27.634;2023-07-13T02:17:10;98393.250000;;;20.000000;44.003906
77517;BME280;68414;53.946;27.634;2023-07-13T02:18:10;98394.765625;;;20.049999;44.008789
77517;BME280;68414;53.946;27.634;2023-07-13T02:19:10;98393.484375;;;20.090000;44.369141
77517;BME280;68414;53.946;27.634;2023-07-13T02:20:10;98390.171875;;;20.139999;44.586914
77517;BME280;68414;53.946;27.634;2023-07-13T02:21:10;98389.687500;;;20.190001;44.346680
77517;BME280;68414;53.946;27.634;2023-07-13T02:22:10;98390.070312;;;20.209999;43.824219
77517;BME280;68414;53.946;27.634;2023-07-13T02:23:10;98385.265625;;;20.219999;44.159180
77517;BME280;68414;53.946;27.634;2023-07-13T02:24:10;98395.765625;;;20.139999;43.527344
77517;BME280;68414;53.946;27.634;2023-07-13T02:25:10;98393.406250;;;20.129999;43.448242
77517;BME280;68414;53.946;27.634;2023-07-13T02:26:10;98389.093750;;;20.080000;43.599609
77517;BME280;68414;53.946;27.634;2023-07-13T02:27:10;98388.812500;;;20.030001;43.683594
77517;BME280;68414;53.946;27.634;2023-07-13T02:28:10;98387.453125;;;20.110001;43.915039
77517;BME280;68414;53.946;27.634;2023-07-13T02:29:10;98378.578125;;;20.160000;43.684570
77517;BME280;68414;53.946;27.634;2023-07-13T02:30:10;98388.070312;;;20.219999;43.835938
77517;BME280;68414;53.946;27.634;2023-07-13T02:31:11;98380.828125;;;20.240000;43.882812
77517;BME280;68414;53.946;27.634;2023-07-13T02:32:10;98379.289062;;;20.200001;44.000977
77517;BME280;68414;53.946;27.634;2023-07-13T02:33:10;98378.929688;;;20.180000;43.854492
77517;BME280;68414;53.946;27.634;2023-07-13T02:34:10;98367.789062;;;20.139999;44.029297
77517;BME280;68414;53.946;27.634;2023-07-13T02:35:10;98377.906250;;;20.080000;44.235352
77517;BME280;68414;53.946;27.634;2023-07-13T02:36:11;98376.750000;;;20.059999;44.645508
77517;BME280;68414;53.946;27.634;2023-07-13T02:37:10;98375.421875;;;20.139999;44.039062
77517;BME280;68414;53.946;27.634;2023-07-13T02:38:10;98368.148438;;;20.160000;44.019531
77517;BME280;68414;53.946;27.634;2023-07-13T02:39:11;98369.382812;;;20.150000;44.030273
77517;BME280;68414;53.946;27.634;2023-07-13T02:40:10;98366.281250;;;20.100000;44.258789
77517;BME280;68414;53.946;27.634;2023-07-13T02:41:10;98368.796875;;;20.040001;44.554688
77517;BME280;68414;53.946;27.634;2023-07-13T02:42:10;98367.203125;;;20.030001;44.576172
77517;BME280;68414;53.946;27.634;2023-07-13T02:43:10;98366.234375;;;20.129999;44.195312
77517;BME280;68414;53.946;27.634;2023-07-13T02:44:12;98364.585938;;;20.160000;44.097656
77517;BME280;68414;53.946;27.634;2023-07-13T02:45:10;98366.398438;;;20.260000;44.029297
77517;BME280;68414;53.946;27.634;2023-07-13T02:46:10;98363.156250;;;20.270000;43.863281
77517;BME280;68414;53.946;27.634;2023-07-13T02:47:10;98364.453125;;;20.230000;44.026367
77517;BME280;68414;53.946;27.634;2023-07-13T02:48:10;98361.601562;;;20.260000;44.030273
77517;BME280;68414;53.946;27.634;2023-07-13T02:49:10;98361.242188;;;20.240000;44.217773
77517;BME280;68414;53.946;27.634;2023-07-13T02:50:10;98365.609375;;;20.250000;44.129883
77517;BME280;68414;53.946;27.634;2023-07-13T02:51:10;98362.007812;;;20.250000;44.208008
77517;BME280;68414;53.946;27.634;2023-07-13T02:52:10;98376.000000;;;20.250000;44.140625
77517;BME280;68414;53.946;27.634;2023-07-13T02:53:10;98366.890625;;;20.209999;44.381836
77517;BME280;68414;53.946;27.634;2023-07-13T02:54:10;98370.890625;;;20.200001;44.481445
77517;BME280;68414;53.946;27.634;2023-07-13T02:55:10;98366.046875;;;20.240000;44.506836
77517;BME280;68414;53.946;27.634;2023-07-13T02:56:10;98368.703125;;;20.309999;44.346680
77517;BME280;68414;53.946;27.634;2023-07-13T02:57:10;98364.179688;;;20.370001;44.218750
77517;BME280;68414;53.946;27.634;2023-07-13T02:58:10;98362.671875;;;20.320000;44.359375
77517;BME280;68414;53.946;27.634;2023-07-13T02:59:10;98361.875000;;;20.320000;44.404297
77517;BME280;68414;53.946;27.634;2023-07-13T03:00:10;98360.359375;;;20.270000;44.734375
77517;BME280;68414;53.946;27.634;2023-07-13T03:01:10;98356.906250;;;20.200001;45.105469
77517;BME280;68414;53.946;27.634;2023-07-13T03:02:10;98351.968750;;;20.270000;45.258789
77517;BME280;68414;53.946;27.634;2023-07-13T03:03:10;98353.125000;;;20.299999;45.685547
77517;BME280;68414;53.946;27.634;2023-07-13T03:04:12;98351.390625;;;20.360001;45.278320
77517;BME280;68414;53.946;27.634;2023-07-13T03:05:10;98351.750000;;;20.379999;45.257812
77517;BME280;68414;53.946;27.634;2023-07-13T03:06:10;98349.250000;;;20.440001;45.174805
77517;BME280;68414;53.946;27.634;2023-07-13T03:07:10;98346.359375;;;20.469999;45.323242
77517;BME280;68414;53.946;27.634;2023-07-13T03:08:11;98345.507812;;;20.500000;45.125977
77517;BME280;68414;53.946;27.634;2023-07-13T03:09:10;98341.468750;;;20.510000;44.601562
77517;BME280;68414;53.946;27.634;2023-07-13T03:10:10;98351.460938;;;20.520000;44.379883
77517;BME280;68414;53.946;27.634;2023-07-13T03:11:12;98348.750000;;;20.490000;44.643555
77517;BME280;68414;53.946;27.634;2023-07-13T03:12:10;98346.304688;;;20.510000;44.801758
77517;BME280;68414;53.946;27.634;2023-07-13T03:13:10;98348.304688;;;20.500000;44.801758
77517;BME280;68414;53.946;27.634;2023-07-13T03:14:10;98349.453125;;;20.530001;45.284180
77517;BME280;68414;53.946;27.634;2023-07-13T03:15:10;98346.484375;;;20.600000;45.370117
77517;BME280;68414;53.946;27.634;2023-07-13T03:16:10;98345.984375;;;20.650000;45.162109
77517;BME280;68414;53.946;27.634;2023-07-13T03:17:10;98352.218750;;;20.719999;44.477539
77517;BME280;68414;53.946;27.634;2023-07-13T03:18:10;98345.890625;;;20.680000;44.551758
77517;BME280;68414;53.946;27.634;2023-07-13T03:19:10;98346.328125;;;20.670000;44.706055
77517;BME280;68414;53.946;27.634;2023-07-13T03:20:10;98345.476562;;;20.700001;44.686523
77517;BME280;68414;53.946;27.634;2023-07-13T03:21:10;98352.781250;;;20.830000;44.455078
77517;BME280;68414;53.946;27.634;2023-07-13T03:22:10;98355.390625;;;20.900000;44.194336
77517;BME280;68414;53.946;27.634;2023-07-13T03:23:10;98346.578125;;;20.920000;44.250977
77517;BME280;68414;53.946;27.634;2023-07-13T03:24:10;98347.937500;;;20.840000;44.656250
77517;BME280;68414;53.946;27.634;2023-07-13T03:25:10;98344.882812;;;20.780001;44.885742
77517;BME280;68414;53.946;27.634;2023-07-13T03:27:10;98350.484375;;;20.780001;44.696289
77517;BME280;68414;53.946;27.634;2023-07-13T03:28:11;98356.281250;;;20.870001;44.615234
77517;BME280;68414;53.946;27.634;2023-07-13T03:29:10;98351.625000;;;20.809999;44.888672
77517;BME280;68414;53.946;27.634;2023-07-13T03:30:10;98354.335938;;;20.840000;44.746094
77517;BME280;68414;53.946;27.634;2023-07-13T03:31:11;98360.640625;;;20.879999;44.705078
77517;BME280;68414;53.946;27.634;2023-07-13T03:32:10;98355.328125;;;20.940001;44.655273
77517;BME280;68414;53.946;27.634;2023-07-13T03:33:10;98366.000000;;;20.990000;44.403320
77517;BME280;68414;53.946;27.634;2023-07-13T03:34:10;98357.015625;;;21.070000;44.155273
77517;BME280;68414;53.946;27.634;2023-07-13T03:35:10;98366.921875;;;21.120001;44.115234
77517;BME280;68414;53.946;27.634;2023-07-13T03:36:12;98364.304688;;;21.209999;43.967773
77517;BME280;68414;53.946;27.634;2023-07-13T03:37:10;98370.953125;;;21.270000;43.928711
77517;BME280;68414;53.946;27.634;2023-07-13T03:38:10;98367.734375;;;21.290001;44.030273
77517;BME280;68414;53.946;27.634;2023-07-13T03:39:10;98374.453125;;;21.309999;43.931641
77517;BME280;68414;53.946;27.634;2023-07-13T03:40:10;98375.703125;;;21.299999;44.009766
77517;BME280;68414;53.946;27.634;2023-07-13T03:41:10;98378.054688;;;21.320000;44.100586
77517;BME280;68414;53.946;27.634;2023-07-13T03:42:10;98370.539062;;;21.290001;44.197266
77517;BME280;68414;53.946;27.634;2023-07-13T03:43:10;98371.585938;;;21.350000;44.226562
77517;BME280;68414;53.946;27.634;2023-07-13T03:44:10;98378.687500;;;21.389999;43.973633
77517;BME280;68414;53.946;27.634;2023-07-13T03:45:10;98379.203125;;;21.340000;44.114258
77517;BME280;68414;53.946;27.634;2023-07-13T03:46:10;98368.437500;;;21.330000;44.302734
77517;BME280;68414;53.946;27.634;2023-07-13T03:47:10;98374.109375;;;21.290001;44.567383
77517;BME280;68414;53.946;27.634;2023-07-13T03:48:10;98375.796875;;;21.270000;44.666016
77517;BME280;68414;53.946;27.634;2023-07-13T03:49:10;98374.296875;;;21.219999;44.896484
77517;BME280;68414;53.946;27.634;2023-07-13T03:50:10;98370.765625;;;21.180000;45.306641
77517;BME280;68414;53.946;27.634;2023-07-13T03:51:10;98378.312500;;;21.209999;45.365234
77517;BME280;68414;53.946;27.634;2023-07-13T03:52:10;98371.234375;;;21.330000;44.985352
77517;BME280;68414;53.946;27.634;2023-07-13T03:53:10;98370.343750;;;21.360001;44.954102
77517;BME280;68414;53.946;27.634;2023-07-13T03:54:10;98363.953125;;;21.510000;44.657227
77517;BME280;68414;53.946;27.634;2023-07-13T03:55:10;98371.914062;;;21.530001;44.558594
77517;BME280;68414;53.946;27.634;2023-07-13T03:56:10;98366.304688;;;21.530001;44.468750
77517;BME280;68414;53.946;27.634;2023-07-13T03:57:10;98372.117188;;;21.459999;44.751953
77517;BME280;68414;53.946;27.634;2023-07-13T03:59:10;98363.007812;;;21.420000;45.520508
77517;BME280;68414;53.946;27.634;2023-07-13T04:00:10;98359.679688;;;21.309999;45.508789
77517;BME280;68414;53.946;27.634;2023-07-13T04:01:11;98365.796875;;;21.260000;45.626953
77517;BME280;68414;53.946;27.634;2023-07-13T04:02:10;98364.585938;;;21.270000;45.526367
77517;BME280;68414;53.946;27.634;2023-07-13T04:03:10;98360.640625;;;21.240000;45.625000
77517;BME280;68414;53.946;27.634;2023-07-13T04:04:10;98355.796875;;;21.250000;45.737305
77517;BME280;68414;53.946;27.634;2023-07-13T04:05:10;98365.703125;;;21.290001;45.685547
77517;BME280;68414;53.946;27.634;2023-07-13T04:07:10;98360.093750;;;21.290001;45.976562
77517;BME280;68414;53.946;27.634;2023-07-13T04:08:10;98362.734375;;;21.360001;46.454102
77517;BME280;68414;53.946;27.634;2023-07-13T04:09:10;98366.500000;;;21.299999;47.833008
77517;BME280;68414;53.946;27.634;2023-07-13T04:10:10;98354.406250;;;21.170000;49.058594
77517;BME280;68414;53.946;27.634;2023-07-13T04:11:10;98363.507812;;;21.209999;48.873047
77517;BME280;68414;53.946;27.634;2023-07-13T04:12:10;98361.781250;;;21.270000;49.180664
77517;BME280;68414;53.946;27.634;2023-07-13T04:13:10;98361.953125;;;21.200001;50.290039
77517;BME280;68414;53.946;27.634;2023-07-13T04:14:10;98368.062500;;;21.139999;50.708008
77517;BME280;68414;53.946;27.634;2023-07-13T04:15:10;98374.625000;;;21.080000;51.347656
77517;BME280;68414;53.946;27.634;2023-07-13T04:16:10;98366.953125;;;20.920000;52.144531
77517;BME280;68414;53.946;27.634;2023-07-13T04:17:10;98368.492188;;;20.770000;53.597656
77517;BME280;68414;53.946;27.634;2023-07-13T04:18:10;98362.031250;;;20.799999;52.989258
77517;BME280;68414;53.946;27.634;2023-07-13T04:19:10;98362.187500;;;20.730000;53.247070
77517;BME280;68414;53.946;27.634;2023-07-13T04:20:10;98368.281250;;;20.680000;52.505859
77517;BME280;68414;53.946;27.634;2023-07-13T04:21:10;98366.726562;;;20.670000;52.828125
77517;BME280;68414;53.946;27.634;2023-07-13T04:22:10;98375.562500;;;20.660000;51.923828
77517;BME280;68414;53.946;27.634;2023-07-13T04:23:10;98379.078125;;;20.700001;52.039062
77517;BME280;68414;53.946;27.634;2023-07-13T04:24:12;98386.179688;;;20.740000;51.933594
77517;BME280;68414;53.946;27.634;2023-07-13T04:25:10;98375.179688;;;20.830000;52.312500
77517;BME280;68414;53.946;27.634;2023-07-13T04:26:10;98386.554688;;;20.920000;51.743164
77517;BME280;68414;53.946;27.634;2023-07-13T04:27:10;98384.898438;;;20.950001;51.568359
77517;BME280;68414;53.946;27.634;2023-07-13T04:28:10;98383.250000;;;20.969999;51.861328
77517;BME280;68414;53.946;27.634;2023-07-13T04:29:10;98393.882812;;;21.059999;51.680664
77517;BME280;68414;53.946;27.634;2023-07-13T04:30:10;98393.093750;;;21.049999;51.769531
77517;BME280;68414;53.946;27.634;2023-07-13T04:31:10;98391.523438;;;21.040001;51.935547
77517;BME280;68414;53.946;27.634;2023-07-13T04:32:10;98386.398438;;;20.990000;52.532227
77517;BME280;68414;53.946;27.634;2023-07-13T04:33:10;98391.796875;;;20.900000;52.644531
77517;BME280;68414;53.946;27.634;2023-07-13T04:34:10;98382.078125;;;20.790001;53.153320
77517;BME280;68414;53.946;27.634;2023-07-13T04:35:10;98381.437500;;;20.709999;53.467773
77517;BME280;68414;53.946;27.634;2023-07-13T04:36:10;98384.375000;;;20.639999;53.772461
77517;BME280;68414;53.946;27.634;2023-07-13T04:37:10;98385.898438;;;20.490000;54.666016
77517;BME280;68414;53.946;27.634;2023-07-13T04:38:10;98387.984375;;;20.450001;55.061523
77517;BME280;68414;53.946;27.634;2023-07-13T04:39:10;98384.562500;;;20.370001;55.909180